createdAt,value
2023-04-15T00:01:53.432Z,8.33
2023-04-15T00:04:20.592Z,9.20
2023-04-15T00:06:54.817Z,9.27
2023-04-15T00:09:21.956Z,9.03
2023-04-15T00:11:50.250Z,8.57
2023-04-15T00:14:17.578Z,8.70
2023-04-15T00:16:44.185Z,8.27
2023-04-15T00:19:11.182Z,8.53
2023-04-15T00:21:37.728Z,10.33
2023-04-15T00:24:04.459Z,9.80
2023-04-15T00:26:31.065Z,9.93
2023-04-15T00:28:58.153Z,10.23
2023-04-15T00:31:25.138Z,10.17
2023-04-15T00:33:52.544Z,9.70
2023-04-15T00:36:19.422Z,9.97
2023-04-15T00:38:47.542Z,8.83
2023-04-15T00:41:14.157Z,9.53
2023-04-15T00:43:40.831Z,9.43
2023-04-15T00:46:07.837Z,9.30
2023-04-15T00:48:35.201Z,9.27
2023-04-15T00:51:02.321Z,9.50
2023-04-15T00:53:28.865Z,8.97
2023-04-15T00:55:55.972Z,8.70
2023-04-15T00:58:22.997Z,9.03
2023-04-15T01:00:54.114Z,8.97
2023-04-15T01:03:21.141Z,9.40
2023-04-15T01:05:47.995Z,9.15
2023-04-15T01:08:14.818Z,9.00
2023-04-15T01:10:42.715Z,8.82
2023-04-15T01:13:09.307Z,9.23
2023-04-15T01:15:36.410Z,9.10
2023-04-15T01:18:03.450Z,9.70
2023-04-15T01:20:30.248Z,9.02
2023-04-15T01:22:56.903Z,9.02
2023-04-15T01:25:33.910Z,8.27
2023-04-15T01:28:01.086Z,8.90
2023-04-15T01:30:27.713Z,8.77
2023-04-15T01:32:54.722Z,8.82
2023-04-15T01:35:21.524Z,8.50
2023-04-15T01:37:49.273Z,9.13
2023-04-15T01:40:16.527Z,9.00
2023-04-15T01:42:43.093Z,9.83
2023-04-15T01:45:10.404Z,9.07
2023-04-15T01:47:36.956Z,8.75
2023-04-15T01:50:03.900Z,9.47
2023-04-15T01:52:30.484Z,9.50
2023-04-15T01:54:57.128Z,9.70
2023-04-15T01:57:23.726Z,10.15
2023-04-15T01:59:50.927Z,10.57
2023-04-15T02:02:18.299Z,10.23
2023-04-15T02:04:45.236Z,11.33
2023-04-15T02:07:12.134Z,11.07
2023-04-15T02:09:39.233Z,11.60
2023-04-15T02:12:06.085Z,12.27
2023-04-15T02:14:33.442Z,12.10
2023-04-15T02:17:07.022Z,12.47
2023-04-15T02:19:34.384Z,11.77
2023-04-15T02:22:02.292Z,12.70
2023-04-15T02:24:30.581Z,12.50
2023-04-15T02:26:57.390Z,12.85
2023-04-15T02:29:24.609Z,11.90
2023-04-15T02:31:51.246Z,13.17
2023-04-15T02:34:17.879Z,13.45
2023-04-15T02:36:44.481Z,12.45
2023-04-15T02:39:12.695Z,12.63
2023-04-15T02:41:39.546Z,12.40
2023-04-15T02:44:07.098Z,13.18
2023-04-15T02:46:33.634Z,12.50
2023-04-15T02:49:00.688Z,12.40
2023-04-15T02:51:32.167Z,12.20
2023-04-15T02:53:58.754Z,11.85
2023-04-15T02:56:25.581Z,11.18
2023-04-15T02:58:52.235Z,11.65
2023-04-15T03:01:20.656Z,11.18
2023-04-15T03:03:47.470Z,10.65
2023-04-15T03:06:14.352Z,10.63
2023-04-15T03:08:41.501Z,10.77
2023-04-15T03:11:08.410Z,10.98
2023-04-15T03:13:35.070Z,10.88
2023-04-15T03:16:01.878Z,10.57
2023-04-15T03:18:29.263Z,10.80
2023-04-15T03:20:55.822Z,10.38
2023-04-15T03:23:23.216Z,10.05
2023-04-15T03:25:49.964Z,9.60
2023-04-15T03:28:16.826Z,10.10
2023-04-15T03:30:43.383Z,10.07
2023-04-15T03:33:10.113Z,10.70
2023-04-15T03:35:36.677Z,9.43
2023-04-15T03:38:03.558Z,10.50
2023-04-15T03:40:30.342Z,10.32
2023-04-15T03:42:57.330Z,10.68
2023-04-15T03:45:23.991Z,11.57
2023-04-15T03:47:50.817Z,12.02
2023-04-15T03:50:17.514Z,10.85
2023-04-15T03:52:44.939Z,12.88
2023-04-15T03:55:12.183Z,11.27
2023-04-15T03:57:39.609Z,12.50
2023-04-15T04:00:07.468Z,11.95
2023-04-15T04:02:34.173Z,12.15
2023-04-15T04:05:01.008Z,13.07
2023-04-15T04:07:27.684Z,12.77
2023-04-15T04:09:54.363Z,12.85
2023-04-15T04:12:21.445Z,12.82
2023-04-15T04:14:48.238Z,12.20
2023-04-15T04:17:15.061Z,12.73
2023-04-15T04:19:42.282Z,12.90
2023-04-15T04:22:08.874Z,13.45
2023-04-15T04:24:35.786Z,13.13
2023-04-15T04:27:03.356Z,13.95
2023-04-15T04:29:30.030Z,13.73
2023-04-15T04:31:56.588Z,14.55
2023-04-15T04:34:23.155Z,14.50
2023-04-15T04:36:49.728Z,14.98
2023-04-15T04:39:16.271Z,14.77
2023-04-15T04:41:43.682Z,14.73
2023-04-15T04:44:10.217Z,15.63
2023-04-15T04:46:36.995Z,16.25
2023-04-15T04:49:04.183Z,16.52
2023-04-15T04:51:31.729Z,15.82
2023-04-15T04:53:58.708Z,16.00
2023-04-15T04:56:25.650Z,16.30
2023-04-15T04:58:53.164Z,16.00
2023-04-15T05:01:19.955Z,15.77
2023-04-15T05:03:46.731Z,16.63
2023-04-15T05:06:13.328Z,15.88
2023-04-15T05:08:41.234Z,15.93
2023-04-15T05:11:08.681Z,16.92
2023-04-15T05:13:38.732Z,16.20
2023-04-15T05:16:06.372Z,16.17
2023-04-15T05:18:33.573Z,17.10
2023-04-15T05:21:00.359Z,16.30
2023-04-15T05:23:27.483Z,15.60
2023-04-15T05:25:54.322Z,15.88
2023-04-15T05:28:21.153Z,15.25
2023-04-15T05:30:47.989Z,16.52
2023-04-15T05:33:14.763Z,15.88
2023-04-15T05:35:41.400Z,16.60
2023-04-15T05:38:08.196Z,15.23
2023-04-15T05:40:34.804Z,16.63
2023-04-15T05:43:02.633Z,15.75
2023-04-15T05:45:29.243Z,16.35
2023-04-15T05:47:56.145Z,16.42
2023-04-15T05:50:22.684Z,15.98
2023-04-15T05:52:49.412Z,16.50
2023-04-15T05:55:16.089Z,16.00
2023-04-15T05:57:42.665Z,16.35
2023-04-15T06:00:10.264Z,16.40
2023-04-15T06:02:37.110Z,16.05
2023-04-15T06:05:04.319Z,16.15
2023-04-15T06:07:31.133Z,17.35
2023-04-15T06:09:57.698Z,16.48
2023-04-15T06:12:24.276Z,16.00
2023-04-15T06:14:51.700Z,15.35
2023-04-15T06:17:19.709Z,15.80
2023-04-15T06:19:46.424Z,16.30
2023-04-15T06:22:12.976Z,15.57
2023-04-15T06:24:39.984Z,14.88
2023-04-15T06:27:07.185Z,15.18
2023-04-15T06:29:33.752Z,16.70
2023-04-15T06:32:00.399Z,16.42
2023-04-15T06:34:27.354Z,15.45
2023-04-15T06:36:54.695Z,16.27
2023-04-15T06:39:21.332Z,15.73
2023-04-15T06:41:48.828Z,15.77
2023-04-15T06:44:15.836Z,15.27
2023-04-15T06:46:42.369Z,15.57
2023-04-15T06:49:08.974Z,14.40
2023-04-15T06:51:36.144Z,14.60
2023-04-15T06:54:05.855Z,14.40
2023-04-15T06:56:33.499Z,15.43
2023-04-15T06:59:00.225Z,14.82
2023-04-15T07:01:27.550Z,15.52
2023-04-15T07:03:54.253Z,15.13
2023-04-15T07:06:21.845Z,14.63
2023-04-15T07:08:48.757Z,15.77
2023-04-15T07:11:15.348Z,16.13
2023-04-15T07:13:41.912Z,15.15
2023-04-15T07:16:08.850Z,16.23
2023-04-15T07:18:35.435Z,15.38
2023-04-15T07:21:02.655Z,14.10
2023-04-15T07:23:29.524Z,13.77
2023-04-15T07:25:57.334Z,14.45
2023-04-15T07:28:23.960Z,14.65
2023-04-15T07:30:50.934Z,12.75
2023-04-15T07:33:17.493Z,13.00
2023-04-15T07:35:45.065Z,12.60
2023-04-15T07:38:13.484Z,12.25
2023-04-15T07:40:40.474Z,11.35
2023-04-15T07:43:07.376Z,12.35
2023-04-15T07:45:34.509Z,11.23
2023-04-15T07:48:02.040Z,11.45
2023-04-15T07:50:29.254Z,11.50
2023-04-15T07:52:56.229Z,10.55
2023-04-15T07:55:23.440Z,10.80
2023-04-15T07:57:50.458Z,10.85
2023-04-15T08:00:17.354Z,11.18
2023-04-15T08:02:44.326Z,11.13
2023-04-15T08:05:11.322Z,10.43
2023-04-15T08:07:38.454Z,9.60
2023-04-15T08:10:05.961Z,10.20
2023-04-15T08:12:32.754Z,9.98
2023-04-15T08:14:59.537Z,10.02
2023-04-15T08:17:26.388Z,9.35
2023-04-15T08:19:53.808Z,9.98
2023-04-15T08:22:21.300Z,9.85
2023-04-15T08:24:49.192Z,10.13
2023-04-15T08:27:15.906Z,9.02
2023-04-15T08:29:42.752Z,8.80
2023-04-15T08:32:09.620Z,7.97
2023-04-15T08:34:36.990Z,8.18
2023-04-15T08:37:07.333Z,8.27
2023-04-15T08:39:40.147Z,7.80
2023-04-15T08:42:16.474Z,7.38
2023-04-15T08:44:44.636Z,7.43
2023-04-15T08:47:14.770Z,7.93
2023-04-15T08:49:42.943Z,7.32
2023-04-15T08:52:10.226Z,7.45
2023-04-15T08:54:37.572Z,8.02
2023-04-15T08:57:04.580Z,7.75
2023-04-15T08:59:31.927Z,7.90
2023-04-15T09:01:59.031Z,7.78
2023-04-15T09:04:25.863Z,7.72
2023-04-15T09:06:54.766Z,6.90
2023-04-15T09:09:23.656Z,6.68
2023-04-15T09:11:52.661Z,7.13
2023-04-15T09:14:19.898Z,6.30
2023-04-15T09:17:05.316Z,6.25
2023-04-15T09:19:34.526Z,5.75
2023-04-15T09:22:03.507Z,6.00
2023-04-15T09:24:42.736Z,5.32
2023-04-15T09:27:10.123Z,5.90
2023-04-15T09:29:37.722Z,5.95
2023-04-15T09:32:14.169Z,5.47
2023-04-15T09:34:40.993Z,5.32
2023-04-15T09:37:08.184Z,5.25
2023-04-15T09:39:52.110Z,4.90
2023-04-15T09:42:27.331Z,4.93
2023-04-15T09:44:54.194Z,4.95
2023-04-15T09:47:29.335Z,5.22
2023-04-15T09:49:57.743Z,5.30
2023-04-15T09:52:24.592Z,5.28
2023-04-15T09:54:55.183Z,5.65
2023-04-15T09:57:21.965Z,5.32
2023-04-15T09:59:48.779Z,5.57
2023-04-15T10:02:18.611Z,5.60
2023-04-15T10:04:45.790Z,6.38
2023-04-15T10:07:13.055Z,6.40
2023-04-15T10:09:40.067Z,6.82
2023-04-15T10:12:07.396Z,6.15
2023-04-15T10:14:36.348Z,6.70
2023-04-15T10:17:04.383Z,7.07
2023-04-15T10:19:37.298Z,7.85
2023-04-15T10:22:04.759Z,7.45
2023-04-15T10:24:32.246Z,7.25
2023-04-15T10:27:00.279Z,8.07
2023-04-15T10:29:27.756Z,8.38
2023-04-15T10:31:58.953Z,8.00
2023-04-15T10:34:26.054Z,8.52
2023-04-15T10:36:57.365Z,8.30
2023-04-15T10:39:33.897Z,8.15
2023-04-15T10:42:08.761Z,8.70
2023-04-15T10:44:39.670Z,8.98
2023-04-15T10:47:21.839Z,9.48
2023-04-15T10:49:57.949Z,9.60
2023-04-15T10:52:27.479Z,9.98
2023-04-15T10:55:08.252Z,9.55
2023-04-15T10:57:38.346Z,9.95
2023-04-15T11:00:15.475Z,10.60
2023-04-15T11:02:44.988Z,11.05
2023-04-15T11:05:12.432Z,12.00
2023-04-15T11:07:49.271Z,12.00
2023-04-15T11:10:20.782Z,13.27
2023-04-15T11:12:51.156Z,13.10
2023-04-15T11:15:31.149Z,13.10
2023-04-15T11:17:59.206Z,13.82
2023-04-15T11:20:26.268Z,14.32
2023-04-15T11:23:14.462Z,13.52
2023-04-15T11:25:41.720Z,15.23
2023-04-15T11:28:08.682Z,14.50
2023-04-15T11:30:37.730Z,15.40
2023-04-15T11:33:06.852Z,15.82
2023-04-15T11:35:33.514Z,16.05
2023-04-15T11:38:04.284Z,17.08
2023-04-15T11:40:33.341Z,17.08
2023-04-15T11:43:21.793Z,17.80
2023-04-15T11:45:58.735Z,17.90
2023-04-15T11:48:34.855Z,18.60
2023-04-15T11:51:03.169Z,18.92
2023-04-15T11:53:49.463Z,18.85
2023-04-15T11:56:22.977Z,18.55
2023-04-15T11:58:53.826Z,20.17
2023-04-15T12:01:20.538Z,19.15
2023-04-15T12:03:48.089Z,19.00
2023-04-15T12:06:25.291Z,17.83
2023-04-15T12:09:09.863Z,20.27
2023-04-15T12:11:48.255Z,19.35
2023-04-15T12:14:33.439Z,20.05
2023-04-15T12:17:01.336Z,19.50
2023-04-15T12:19:31.781Z,19.90
2023-04-15T12:22:01.492Z,20.65
2023-04-15T12:24:30.855Z,19.88
2023-04-15T12:26:58.110Z,20.52
2023-04-15T12:29:30.243Z,20.25
2023-04-15T12:31:58.953Z,19.05
2023-04-15T12:34:37.744Z,19.35
2023-04-15T12:37:06.408Z,19.25
2023-04-15T12:39:36.551Z,18.75
2023-04-15T12:42:04.331Z,19.15
2023-04-15T12:44:30.976Z,19.45
2023-04-15T12:46:57.994Z,19.05
2023-04-15T12:49:24.689Z,18.80
2023-04-15T12:51:53.690Z,18.75
2023-04-15T12:54:20.824Z,18.85
2023-04-15T12:56:48.911Z,19.25
2023-04-15T12:59:17.749Z,19.02
2023-04-15T13:01:45.055Z,19.88
2023-04-15T13:04:11.757Z,19.52
2023-04-15T13:06:38.474Z,19.58
2023-04-15T13:09:06.056Z,17.15
2023-04-15T13:11:33.849Z,16.83
2023-04-15T13:14:06.104Z,14.85
2023-04-15T13:16:33.828Z,14.25
2023-04-15T13:19:01.747Z,14.30
2023-04-15T13:21:28.563Z,15.20
2023-04-15T13:23:55.753Z,14.95
2023-04-15T13:26:22.790Z,14.02
2023-04-15T13:28:49.391Z,14.60
2023-04-15T13:31:16.042Z,15.85
2023-04-15T13:33:43.223Z,15.32
2023-04-15T13:36:09.815Z,15.23
2023-04-15T13:38:37.171Z,15.27
2023-04-15T13:41:03.838Z,15.90
2023-04-15T13:43:30.672Z,14.73
2023-04-15T13:45:57.324Z,15.93
2023-04-15T13:48:23.961Z,16.33
2023-04-15T13:50:50.571Z,16.02
2023-04-15T13:53:17.691Z,16.80
2023-04-15T13:55:44.503Z,15.77
2023-04-15T13:58:11.799Z,16.35
2023-04-15T14:00:38.479Z,16.27
2023-04-15T14:03:05.271Z,14.90
2023-04-15T14:05:32.621Z,14.18
2023-04-15T14:08:00.416Z,13.50
2023-04-15T14:10:27.066Z,14.15
2023-04-15T14:12:54.237Z,14.60
2023-04-15T14:15:21.393Z,14.85
2023-04-15T14:17:48.727Z,14.60
2023-04-15T14:20:17.191Z,14.40
2023-04-15T14:22:44.106Z,14.68
2023-04-15T14:25:17.302Z,14.30
2023-04-15T14:27:50.148Z,13.82
2023-04-15T14:30:17.476Z,14.10
2023-04-15T14:32:44.628Z,13.82
2023-04-15T14:35:11.508Z,12.18
2023-04-15T14:37:38.370Z,12.57
2023-04-15T14:40:06.011Z,12.73
2023-04-15T14:42:32.882Z,12.93
2023-04-15T14:44:59.516Z,12.32
2023-04-15T14:47:26.396Z,13.50
2023-04-15T14:49:53.055Z,13.35
2023-04-15T14:52:19.614Z,13.98
2023-04-15T14:54:46.144Z,14.15
2023-04-15T14:57:12.712Z,13.77
2023-04-15T14:59:39.346Z,14.82
2023-04-15T15:02:06.106Z,14.50
2023-04-15T15:04:34.136Z,14.43
2023-04-15T15:07:00.751Z,14.82
2023-04-15T15:09:27.504Z,13.93
2023-04-15T15:11:54.057Z,14.43
2023-04-15T15:14:20.618Z,13.55
2023-04-15T15:16:47.186Z,13.63
2023-04-15T15:19:13.923Z,12.68
2023-04-15T15:21:40.660Z,12.90
2023-04-15T15:24:07.472Z,12.68
2023-04-15T15:26:34.521Z,10.45
2023-04-15T15:29:01.189Z,9.57
2023-04-15T15:31:27.774Z,7.88
2023-04-15T15:33:54.339Z,9.35
2023-04-15T15:36:27.122Z,8.00
2023-04-15T15:38:53.879Z,9.20
2023-04-15T15:41:21.173Z,8.52
2023-04-15T15:43:47.699Z,10.52
2023-04-15T15:46:14.613Z,9.38
2023-04-15T15:48:41.413Z,9.50
2023-04-15T15:51:08.350Z,9.82
2023-04-15T15:53:36.786Z,9.07
2023-04-15T15:56:04.476Z,9.75
2023-04-15T15:58:31.585Z,9.43
2023-04-15T16:00:59.739Z,9.73
2023-04-15T16:03:27.708Z,9.50
2023-04-15T16:05:54.444Z,9.68
2023-04-15T16:08:21.245Z,9.07
2023-04-15T16:10:57.239Z,9.68
2023-04-15T16:13:24.276Z,10.55
2023-04-15T16:16:15.213Z,9.80
2023-04-15T16:18:45.041Z,10.88
2023-04-15T16:21:12.601Z,10.70
2023-04-15T16:23:41.390Z,11.15
2023-04-15T16:26:08.587Z,11.40
2023-04-15T16:28:35.680Z,11.50
2023-04-15T16:31:06.113Z,11.45
2023-04-15T16:34:22.004Z,11.85
2023-04-15T16:36:49.001Z,14.88
2023-04-15T16:39:16.366Z,13.00
2023-04-15T16:41:43.414Z,16.17
2023-04-15T16:44:47.839Z,13.18
2023-04-15T16:47:14.990Z,13.00
2023-04-15T16:49:42.426Z,14.15
2023-04-15T16:52:10.342Z,13.15
2023-04-15T16:54:41.454Z,14.52
2023-04-15T17:00:32.528Z,13.10
2023-04-15T17:03:04.239Z,14.00
2023-04-15T17:05:43.786Z,12.27
2023-04-15T17:08:14.514Z,14.50
2023-04-15T17:10:41.503Z,12.48
2023-04-15T17:13:08.724Z,13.18
2023-04-15T17:15:35.421Z,13.77
2023-04-15T17:18:02.228Z,13.00
2023-04-15T17:20:31.232Z,12.77
2023-04-15T17:22:58.540Z,13.15
2023-04-15T17:25:25.193Z,12.73
2023-04-15T17:27:51.854Z,12.98
2023-04-15T17:30:19.543Z,14.00
2023-04-15T17:32:46.160Z,14.07
2023-04-15T17:35:23.386Z,12.85
2023-04-15T17:37:50.025Z,13.38
2023-04-15T17:40:17.434Z,13.80
2023-04-15T17:42:44.012Z,13.60
2023-04-15T17:45:11.290Z,13.02
2023-04-15T17:47:37.984Z,14.20
2023-04-15T17:50:05.086Z,14.20
2023-04-15T17:52:32.003Z,13.57
2023-04-15T17:54:58.821Z,12.55
2023-04-15T17:57:25.629Z,14.05
2023-04-15T17:59:52.255Z,13.63
2023-04-15T18:02:19.038Z,13.52
2023-04-15T18:04:45.822Z,13.77
2023-04-15T18:07:12.513Z,13.00
2023-04-15T18:09:39.812Z,13.77
2023-04-15T18:12:09.186Z,12.80
2023-04-15T18:14:36.235Z,12.88
2023-04-15T18:17:03.703Z,12.57
2023-04-15T18:19:30.958Z,13.52
2023-04-15T18:21:59.819Z,13.82
2023-04-15T18:24:26.845Z,13.32
2023-04-15T18:26:54.000Z,13.50
2023-04-15T18:29:20.830Z,13.60
2023-04-15T18:31:47.541Z,14.25
2023-04-15T18:34:14.241Z,12.93
2023-04-15T18:36:41.265Z,13.82
2023-04-15T18:39:08.813Z,13.73
2023-04-15T18:41:35.479Z,13.20
2023-04-15T18:44:02.032Z,13.15
2023-04-15T18:46:29.180Z,12.98
2023-04-15T18:48:55.833Z,15.82
2023-04-15T18:51:23.073Z,15.15
2023-04-15T18:53:49.685Z,14.25
2023-04-15T18:56:16.857Z,12.90
2023-04-15T18:59:08.893Z,12.65
2023-04-15T19:01:32.001Z,12.80
2023-04-15T19:03:58.792Z,12.52
2023-04-15T19:06:27.029Z,12.68
2023-04-15T19:08:53.648Z,12.73
2023-04-15T19:11:20.308Z,12.93
2023-04-15T19:13:46.872Z,11.80
2023-04-15T19:16:14.234Z,13.25
2023-04-15T19:18:40.902Z,12.70
2023-04-15T19:21:08.121Z,12.40
2023-04-15T19:23:34.803Z,12.05
2023-04-15T19:26:01.594Z,13.02
2023-04-15T19:28:28.486Z,12.82
2023-04-15T19:30:55.620Z,13.30
2023-04-15T19:33:22.655Z,12.52
2023-04-15T19:35:50.171Z,13.70
2023-04-15T19:38:17.328Z,13.35
2023-04-15T19:40:44.161Z,13.52
2023-04-15T19:43:13.061Z,13.40
2023-04-15T19:45:40.276Z,14.57
2023-04-15T19:48:07.500Z,14.95
2023-04-15T19:50:34.172Z,14.50
2023-04-15T19:53:01.215Z,13.07
2023-04-15T19:55:27.934Z,13.82
2023-04-15T19:57:54.658Z,13.98
2023-04-15T20:00:21.976Z,15.40
2023-04-15T20:02:48.808Z,14.90
2023-04-15T20:05:15.659Z,13.98
2023-04-15T20:07:43.033Z,13.48
2023-04-15T20:10:14.008Z,13.20
2023-04-15T20:12:50.108Z,13.20
2023-04-15T20:15:19.407Z,12.85
2023-04-15T20:17:46.126Z,13.45
2023-04-15T20:20:13.025Z,13.65
2023-04-15T20:22:39.743Z,13.98
2023-04-15T20:25:07.570Z,13.93
2023-04-15T20:27:34.245Z,14.10
2023-04-15T20:30:01.344Z,14.43
2023-04-15T20:32:28.388Z,14.52
2023-04-15T20:34:55.997Z,15.10
2023-04-15T20:37:22.682Z,15.20
2023-04-15T20:39:49.558Z,14.82
2023-04-15T20:42:16.321Z,15.20
2023-04-15T20:44:43.119Z,15.93
2023-04-15T20:47:09.890Z,14.55
2023-04-15T20:49:38.400Z,15.75
2023-04-15T20:52:07.370Z,15.02
2023-04-15T20:54:34.376Z,15.05
2023-04-15T20:57:01.723Z,15.70
2023-04-15T20:59:30.834Z,16.10
2023-04-15T21:01:58.292Z,15.48
2023-04-15T21:04:25.063Z,15.43
2023-04-15T21:06:54.885Z,16.40
2023-04-15T21:09:21.715Z,15.18
2023-04-15T21:14:19.064Z,15.57
2023-04-15T21:16:46.058Z,15.25
2023-04-15T21:19:13.283Z,15.43
2023-04-15T21:21:40.088Z,15.13
2023-04-15T21:24:10.992Z,15.45
2023-04-15T21:26:37.683Z,14.75
2023-04-15T21:29:04.586Z,14.57
2023-04-15T21:31:31.656Z,15.45
2023-04-15T21:33:59.572Z,14.35
2023-04-15T21:36:26.898Z,14.05
2023-04-15T21:38:53.977Z,15.23
2023-04-15T21:41:20.765Z,15.30
2023-04-15T21:43:47.438Z,15.32
2023-04-15T21:46:21.985Z,14.07
2023-04-15T21:48:51.775Z,14.80
2023-04-15T21:51:18.782Z,16.17
2023-04-15T21:53:45.693Z,15.38
2023-04-15T21:56:12.384Z,15.35
2023-04-15T21:58:39.299Z,15.43
2023-04-15T22:01:06.339Z,14.73
2023-04-15T22:03:34.994Z,16.15
2023-04-15T22:06:02.955Z,16.42
2023-04-15T22:08:33.608Z,16.13
2023-04-15T22:11:05.532Z,15.40
2023-04-15T22:13:32.214Z,15.80
2023-04-15T22:16:01.368Z,16.58
2023-04-15T22:18:28.106Z,16.67
2023-04-15T22:20:54.892Z,16.42
2023-04-15T22:23:21.528Z,17.02
2023-04-15T22:25:48.294Z,16.80
2023-04-15T22:28:15.185Z,16.23
2023-04-15T22:30:42.550Z,16.17
2023-04-15T22:33:09.726Z,16.25
2023-04-15T22:35:37.383Z,16.02
2023-04-15T22:38:04.936Z,15.52
2023-04-15T22:40:32.834Z,16.35
2023-04-15T22:42:59.877Z,16.08
2023-04-15T22:45:26.800Z,16.90
2023-04-15T22:47:54.020Z,15.75
2023-04-15T22:50:20.823Z,16.35
2023-04-15T22:52:48.231Z,16.33
2023-04-15T22:55:15.521Z,16.50
2023-04-15T22:57:42.385Z,17.20
2023-04-15T23:00:09.810Z,16.52
2023-04-15T23:02:36.629Z,16.33
2023-04-15T23:05:12.470Z,15.77
2023-04-15T23:07:39.928Z,16.38
2023-04-15T23:10:08.477Z,17.35
2023-04-15T23:12:35.138Z,16.33
2023-04-15T23:15:02.736Z,17.20
2023-04-15T23:17:29.454Z,17.42
2023-04-15T23:19:56.106Z,17.65
2023-04-15T23:22:22.788Z,17.75
2023-04-15T23:24:49.406Z,17.25
2023-04-15T23:27:18.907Z,18.08
2023-04-15T23:29:46.058Z,18.20
2023-04-15T23:32:12.720Z,17.65
2023-04-15T23:34:39.558Z,18.60
2023-04-15T23:37:06.181Z,18.13
2023-04-15T23:39:33.147Z,18.98
2023-04-15T23:41:59.946Z,19.27
2023-04-15T23:44:27.206Z,18.52
2023-04-15T23:46:56.128Z,18.20
2023-04-15T23:49:22.891Z,18.42
2023-04-15T23:51:49.658Z,18.50
2023-04-15T23:54:16.295Z,18.67
2023-04-15T23:56:42.968Z,18.42
2023-04-15T23:59:09.900Z,20.38
